sensor_id;sensor_type;location;lat;lon;timestamp;pressure;altitude;pressure_sealevel;temperature;humidity
10832;BME280;5469;48.574;8.768;2022-12-29T00:02:32;94453.41;;;9.13;nan
10832;BME280;5469;48.574;8.768;2022-12-29T00:05:08;94443.63;;;9.14;nan
10832;BME280;5469;48.574;8.768;2022-12-29T00:07:43;94448.31;;;9.27;nan
10832;BME280;5469;48.574;8.768;2022-12-29T00:10:19;94440.13;;;9.29;nan
10832;BME280;5469;48.574;8.768;2022-12-29T00:12:55;94435.91;;;9.23;nan
10832;BME280;5469;48.574;8.768;2022-12-29T00:15:48;94437.91;;;9.41;nan
10832;BME280;5469;48.574;8.768;2022-12-29T00:18:23;94429.34;;;9.54;nan
10832;BME280;5469;48.574;8.768;2022-12-29T00:20:58;94439.47;;;9.47;nan
10832;BME280;5469;48.574;8.768;2022-12-29T00:23:51;94415.91;;;9.51;nan
10832;BME280;5469;48.574;8.768;2022-12-29T00:26:43;94425.06;;;9.63;nan
10832;BME280;5469;48.574;8.768;2022-12-29T00:29:38;94408.72;;;9.56;nan
10832;BME280;5469;48.574;8.768;2022-12-29T00:32:31;94420.56;;;9.64;nan
10832;BME280;5469;48.574;8.768;2022-12-29T00:35:28;94421.03;;;9.71;nan
10832;BME280;5469;48.574;8.768;2022-12-29T00:38:06;94419.38;;;9.80;nan
10832;BME280;5469;48.574;8.768;2022-12-29T00:41:00;94416.94;;;9.89;nan
10832;BME280;5469;48.574;8.768;2022-12-29T00:43:53;94412.78;;;9.78;nan
10832;BME280;5469;48.574;8.768;2022-12-29T00:46:42;94426.50;;;9.85;nan
10832;BME280;5469;48.574;8.768;2022-12-29T00:49:17;94419.09;;;9.82;nan
10832;BME280;5469;48.574;8.768;2022-12-29T00:52:07;94420.25;;;10.05;nan
10832;BME280;5469;48.574;8.768;2022-12-29T00:54:43;94415.50;;;10.02;nan
10832;BME280;5469;48.574;8.768;2022-12-29T00:57:18;94424.75;;;10.04;nan
10832;BME280;5469;48.574;8.768;2022-12-29T00:59:54;94420.56;;;9.98;nan
10832;BME280;5469;48.574;8.768;2022-12-29T01:02:31;94424.19;;;10.07;nan
10832;BME280;5469;48.574;8.768;2022-12-29T01:05:08;94416.22;;;10.13;nan
10832;BME280;5469;48.574;8.768;2022-12-29T01:07:44;94410.13;;;10.12;nan
10832;BME280;5469;48.574;8.768;2022-12-29T01:10:19;94407.75;;;10.11;nan
10832;BME280;5469;48.574;8.768;2022-12-29T01:12:54;94400.97;;;9.99;nan
10832;BME280;5469;48.574;8.768;2022-12-29T01:15:30;94420.47;;;10.09;nan
10832;BME280;5469;48.574;8.768;2022-12-29T01:18:07;94420.38;;;10.19;nan
10832;BME280;5469;48.574;8.768;2022-12-29T01:20:42;94414.06;;;10.15;nan
10832;BME280;5469;48.574;8.768;2022-12-29T01:23:17;94420.97;;;10.11;nan
10832;BME280;5469;48.574;8.768;2022-12-29T01:25:52;94435.78;;;10.12;nan
10832;BME280;5469;48.574;8.768;2022-12-29T01:28:27;94433.72;;;10.09;nan
10832;BME280;5469;48.574;8.768;2022-12-29T01:31:03;94427.50;;;9.94;nan
10832;BME280;5469;48.574;8.768;2022-12-29T01:33:40;94431.06;;;10.09;nan
10832;BME280;5469;48.574;8.768;2022-12-29T01:36:17;94430.91;;;10.24;nan
10832;BME280;5469;48.574;8.768;2022-12-29T01:38:53;94423.06;;;10.14;nan
10832;BME280;5469;48.574;8.768;2022-12-29T01:41:28;94436.88;;;10.11;nan
10832;BME280;5469;48.574;8.768;2022-12-29T01:44:02;94443.69;;;10.17;nan
10832;BME280;5469;48.574;8.768;2022-12-29T01:46:40;94434.63;;;10.28;nan
10832;BME280;5469;48.574;8.768;2022-12-29T01:49:21;94427.69;;;10.32;nan
10832;BME280;5469;48.574;8.768;2022-12-29T01:52:02;94425.16;;;10.17;nan
10832;BME280;5469;48.574;8.768;2022-12-29T01:54:42;94419.38;;;10.15;nan
10832;BME280;5469;48.574;8.768;2022-12-29T01:57:19;94429.72;;;10.11;nan
10832;BME280;5469;48.574;8.768;2022-12-29T02:00:00;94423.06;;;10.14;nan
10832;BME280;5469;48.574;8.768;2022-12-29T02:02:37;94432.09;;;10.13;nan
10832;BME280;5469;48.574;8.768;2022-12-29T02:05:18;94428.22;;;10.34;nan
10832;BME280;5469;48.574;8.768;2022-12-29T02:07:54;94421.97;;;10.20;nan
10832;BME280;5469;48.574;8.768;2022-12-29T02:10:31;94418.19;;;10.31;nan
10832;BME280;5469;48.574;8.768;2022-12-29T02:13:09;94424.72;;;10.39;nan
10832;BME280;5469;48.574;8.768;2022-12-29T02:15:51;94423.38;;;10.41;nan
10832;BME280;5469;48.574;8.768;2022-12-29T02:18:35;94407.47;;;10.41;nan
10832;BME280;5469;48.574;8.768;2022-12-29T02:21:47;94407.19;;;10.14;nan
10832;BME280;5469;48.574;8.768;2022-12-29T02:24:56;94398.91;;;10.49;nan
10832;BME280;5469;48.574;8.768;2022-12-29T02:27:57;94408.03;;;10.38;nan
10832;BME280;5469;48.574;8.768;2022-12-29T02:30:43;94403.31;;;10.35;nan
10832;BME280;5469;48.574;8.768;2022-12-29T02:33:27;94400.94;;;10.58;nan
10832;BME280;5469;48.574;8.768;2022-12-29T02:36:13;94395.19;;;10.50;nan
10832;BME280;5469;48.574;8.768;2022-12-29T02:38:59;94396.88;;;10.41;nan
10832;BME280;5469;48.574;8.768;2022-12-29T02:41:42;94381.56;;;10.38;nan
10832;BME280;5469;48.574;8.768;2022-12-29T02:44:27;94404.22;;;10.49;nan
10832;BME280;5469;48.574;8.768;2022-12-29T02:47:12;94402.91;;;10.18;nan
10832;BME280;5469;48.574;8.768;2022-12-29T02:49:51;94404.50;;;10.19;nan
10832;BME280;5469;48.574;8.768;2022-12-29T02:52:38;94395.94;;;10.27;nan
10832;BME280;5469;48.574;8.768;2022-12-29T02:55:17;94404.22;;;10.49;nan
10832;BME280;5469;48.574;8.768;2022-12-29T02:58:12;94383.22;;;10.29;nan
10832;BME280;5469;48.574;8.768;2022-12-29T03:01:06;94391.69;;;10.31;nan
10832;BME280;5469;48.574;8.768;2022-12-29T03:03:51;94402.66;;;10.48;nan
10832;BME280;5469;48.574;8.768;2022-12-29T03:06:42;94404.00;;;10.46;nan
10832;BME280;5469;48.574;8.768;2022-12-29T03:09:31;94383.59;;;10.46;nan
10832;BME280;5469;48.574;8.768;2022-12-29T03:12:18;94397.06;;;10.21;nan
10832;BME280;5469;48.574;8.768;2022-12-29T03:15:02;94387.84;;;10.42;nan
10832;BME280;5469;48.574;8.768;2022-12-29T03:18:01;94393.63;;;10.49;nan
10832;BME280;5469;48.574;8.768;2022-12-29T03:20:43;94375.19;;;10.39;nan
10832;BME280;5469;48.574;8.768;2022-12-29T03:23:21;94366.22;;;10.35;nan
10832;BME280;5469;48.574;8.768;2022-12-29T03:26:00;94356.63;;;10.39;nan
10832;BME280;5469;48.574;8.768;2022-12-29T03:28:38;94364.97;;;10.52;nan
10832;BME280;5469;48.574;8.768;2022-12-29T03:31:15;94344.78;;;10.56;nan
10832;BME280;5469;48.574;8.768;2022-12-29T03:33:55;94381.34;;;10.59;nan
10832;BME280;5469;48.574;8.768;2022-12-29T03:36:35;94358.66;;;10.47;nan
10832;BME280;5469;48.574;8.768;2022-12-29T03:39:15;94348.94;;;10.43;nan
10832;BME280;5469;48.574;8.768;2022-12-29T03:41:54;94357.16;;;10.41;nan
10832;BME280;5469;48.574;8.768;2022-12-29T03:44:38;94345.59;;;10.32;nan
10832;BME280;5469;48.574;8.768;2022-12-29T03:47:15;94340.38;;;10.22;nan
10832;BME280;5469;48.574;8.768;2022-12-29T03:49:52;94348.63;;;10.44;nan
10832;BME280;5469;48.574;8.768;2022-12-29T03:52:28;94350.34;;;10.35;nan
10832;BME280;5469;48.574;8.768;2022-12-29T03:55:04;94366.34;;;10.49;nan
10832;BME280;5469;48.574;8.768;2022-12-29T03:57:39;94364.72;;;10.24;nan
10832;BME280;5469;48.574;8.768;2022-12-29T04:00:15;94379.13;;;10.13;nan
10832;BME280;5469;48.574;8.768;2022-12-29T04:02:51;94371.59;;;10.25;nan
10832;BME280;5469;48.574;8.768;2022-12-29T04:05:26;94363.94;;;10.23;nan
10832;BME280;5469;48.574;8.768;2022-12-29T04:08:03;94367.97;;;10.16;nan
10832;BME280;5469;48.574;8.768;2022-12-29T04:10:38;94365.91;;;10.13;nan
10832;BME280;5469;48.574;8.768;2022-12-29T04:13:15;94373.38;;;10.05;nan
10832;BME280;5469;48.574;8.768;2022-12-29T04:15:51;94377.72;;;9.96;nan
10832;BME280;5469;48.574;8.768;2022-12-29T04:18:26;94379.44;;;10.06;nan
10832;BME280;5469;48.574;8.768;2022-12-29T04:21:01;94373.88;;;10.07;nan
10832;BME280;5469;48.574;8.768;2022-12-29T04:23:39;94391.84;;;10.40;nan
10832;BME280;5469;48.574;8.768;2022-12-29T04:26:14;94389.34;;;10.24;nan
10832;BME280;5469;48.574;8.768;2022-12-29T04:28:50;94387.97;;;10.27;nan
10832;BME280;5469;48.574;8.768;2022-12-29T04:31:25;94391.19;;;10.24;nan
10832;BME280;5469;48.574;8.768;2022-12-29T04:34:00;94380.03;;;10.27;nan
10832;BME280;5469;48.574;8.768;2022-12-29T04:36:35;94368.94;;;10.30;nan
10832;BME280;5469;48.574;8.768;2022-12-29T04:39:12;94381.09;;;10.31;nan
10832;BME280;5469;48.574;8.768;2022-12-29T04:41:47;94391.13;;;10.34;nan
10832;BME280;5469;48.574;8.768;2022-12-29T04:44:22;94387.06;;;10.42;nan
10832;BME280;5469;48.574;8.768;2022-12-29T04:46:57;94385.81;;;10.34;nan
10832;BME280;5469;48.574;8.768;2022-12-29T04:49:32;94395.50;;;10.20;nan
10832;BME280;5469;48.574;8.768;2022-12-29T04:52:07;94394.28;;;10.36;nan
10832;BME280;5469;48.574;8.768;2022-12-29T04:54:44;94387.84;;;10.42;nan
10832;BME280;5469;48.574;8.768;2022-12-29T04:57:20;94377.25;;;10.42;nan
10832;BME280;5469;48.574;8.768;2022-12-29T04:59:55;94367.97;;;10.45;nan
10832;BME280;5469;48.574;8.768;2022-12-29T05:02:30;94364.63;;;10.34;nan
10832;BME280;5469;48.574;8.768;2022-12-29T05:05:09;94365.41;;;10.35;nan
10832;BME280;5469;48.574;8.768;2022-12-29T05:07:44;94369.63;;;10.41;nan
10832;BME280;5469;48.574;8.768;2022-12-29T05:10:21;94370.97;;;10.38;nan
10832;BME280;5469;48.574;8.768;2022-12-29T05:12:56;94368.81;;;10.40;nan
10832;BME280;5469;48.574;8.768;2022-12-29T05:15:32;94377.25;;;10.42;nan
10832;BME280;5469;48.574;8.768;2022-12-29T05:18:07;94367.69;;;10.46;nan
10832;BME280;5469;48.574;8.768;2022-12-29T05:20:43;94377.25;;;10.42;nan
10832;BME280;5469;48.574;8.768;2022-12-29T05:23:19;94379.28;;;10.50;nan
10832;BME280;5469;48.574;8.768;2022-12-29T05:25:56;94378.75;;;10.54;nan
10832;BME280;5469;48.574;8.768;2022-12-29T05:28:30;94381.03;;;10.60;nan
10832;BME280;5469;48.574;8.768;2022-12-29T05:31:06;94413.56;;;10.66;nan
10832;BME280;5469;48.574;8.768;2022-12-29T05:33:41;94376.25;;;10.62;nan
10832;BME280;5469;48.574;8.768;2022-12-29T05:36:17;94401.97;;;10.62;nan
10832;BME280;5469;48.574;8.768;2022-12-29T05:38:52;94379.63;;;10.68;nan
10832;BME280;5469;48.574;8.768;2022-12-29T05:41:29;94384.47;;;10.61;nan
10832;BME280;5469;48.574;8.768;2022-12-29T05:44:04;94373.75;;;10.71;nan
10832;BME280;5469;48.574;8.768;2022-12-29T05:46:39;94385.94;;;10.72;nan
10832;BME280;5469;48.574;8.768;2022-12-29T05:49:14;94378.06;;;10.67;nan
10832;BME280;5469;48.574;8.768;2022-12-29T05:51:49;94380.72;;;10.67;nan
10832;BME280;5469;48.574;8.768;2022-12-29T05:54:24;94376.47;;;10.66;nan
10832;BME280;5469;48.574;8.768;2022-12-29T05:57:01;94359.97;;;10.74;nan
10832;BME280;5469;48.574;8.768;2022-12-29T05:59:36;94365.84;;;10.66;nan
10832;BME280;5469;48.574;8.768;2022-12-29T06:02:12;94377.75;;;10.68;nan
10832;BME280;5469;48.574;8.768;2022-12-29T06:04:47;94366.88;;;10.70;nan
10832;BME280;5469;48.574;8.768;2022-12-29T06:07:22;94348.06;;;10.71;nan
10832;BME280;5469;48.574;8.768;2022-12-29T06:09:57;94352.00;;;10.74;nan
10832;BME280;5469;48.574;8.768;2022-12-29T06:12:34;94350.41;;;10.73;nan
10832;BME280;5469;48.574;8.768;2022-12-29T06:15:10;94353.56;;;10.75;nan
10832;BME280;5469;48.574;8.768;2022-12-29T06:17:45;94346.63;;;10.79;nan
10832;BME280;5469;48.574;8.768;2022-12-29T06:20:20;94360.88;;;10.83;nan
10832;BME280;5469;48.574;8.768;2022-12-29T06:22:55;94368.06;;;10.83;nan
10832;BME280;5469;48.574;8.768;2022-12-29T06:25:31;94367.34;;;10.77;nan
10832;BME280;5469;48.574;8.768;2022-12-29T06:28:08;94373.50;;;10.91;nan
10832;BME280;5469;48.574;8.768;2022-12-29T06:30:46;94370.91;;;10.86;nan
10832;BME280;5469;48.574;8.768;2022-12-29T06:33:21;94374.66;;;10.85;nan
10832;BME280;5469;48.574;8.768;2022-12-29T06:35:56;94378.88;;;10.86;nan
10832;BME280;5469;48.574;8.768;2022-12-29T06:38:31;94372.94;;;10.94;nan
10832;BME280;5469;48.574;8.768;2022-12-29T06:41:06;94350.94;;;10.94;nan
10832;BME280;5469;48.574;8.768;2022-12-29T06:43:43;94355.59;;;10.83;nan
10832;BME280;5469;48.574;8.768;2022-12-29T06:46:18;94356.59;;;10.87;nan
10832;BME280;5469;48.574;8.768;2022-12-29T06:48:55;94358.44;;;10.87;nan
10832;BME280;5469;48.574;8.768;2022-12-29T06:51:29;94363.47;;;10.88;nan
10832;BME280;5469;48.574;8.768;2022-12-29T06:54:05;94350.59;;;11.01;nan
10832;BME280;5469;48.574;8.768;2022-12-29T06:56:40;94347.09;;;11.05;nan
10832;BME280;5469;48.574;8.768;2022-12-29T06:59:17;94342.25;;;10.88;nan
10832;BME280;5469;48.574;8.768;2022-12-29T07:01:53;94334.81;;;11.09;nan
10832;BME280;5469;48.574;8.768;2022-12-29T07:04:30;94348.00;;;10.96;nan
10832;BME280;5469;48.574;8.768;2022-12-29T07:07:07;94350.09;;;10.99;nan
10832;BME280;5469;48.574;8.768;2022-12-29T07:09:41;94342.72;;;10.96;nan
10832;BME280;5469;48.574;8.768;2022-12-29T07:12:16;94346.41;;;10.94;nan
10832;BME280;5469;48.574;8.768;2022-12-29T07:14:53;94341.81;;;10.81;nan
10832;BME280;5469;48.574;8.768;2022-12-29T07:17:28;94350.59;;;11.01;nan
10832;BME280;5469;48.574;8.768;2022-12-29T07:20:03;94356.47;;;10.98;nan
10832;BME280;5469;48.574;8.768;2022-12-29T07:22:38;94362.31;;;10.94;nan
10832;BME280;5469;48.574;8.768;2022-12-29T07:25:13;94354.31;;;11.00;nan
10832;BME280;5469;48.574;8.768;2022-12-29T07:27:48;94359.13;;;10.98;nan
10832;BME280;5469;48.574;8.768;2022-12-29T07:30:26;94360.63;;;11.04;nan
10832;BME280;5469;48.574;8.768;2022-12-29T07:33:01;94364.69;;;11.15;nan
10832;BME280;5469;48.574;8.768;2022-12-29T07:35:36;94367.94;;;11.12;nan
10832;BME280;5469;48.574;8.768;2022-12-29T07:38:11;94373.81;;;11.09;nan
10832;BME280;5469;48.574;8.768;2022-12-29T07:40:46;94376.84;;;11.21;nan
10832;BME280;5469;48.574;8.768;2022-12-29T07:43:21;94368.94;;;11.16;nan
10832;BME280;5469;48.574;8.768;2022-12-29T07:45:57;94361.31;;;11.28;nan
10832;BME280;5469;48.574;8.768;2022-12-29T07:48:32;94369.94;;;11.20;nan
10832;BME280;5469;48.574;8.768;2022-12-29T07:51:09;94365.44;;;11.21;nan
10832;BME280;5469;48.574;8.768;2022-12-29T07:53:44;94352.88;;;11.26;nan
10832;BME280;5469;48.574;8.768;2022-12-29T07:56:19;94365.22;;;11.17;nan
10832;BME280;5469;48.574;8.768;2022-12-29T07:58:54;94357.25;;;11.36;nan
10832;BME280;5469;48.574;8.768;2022-12-29T08:01:31;94375.09;;;11.30;nan
10832;BME280;5469;48.574;8.768;2022-12-29T08:04:06;94372.88;;;11.37;nan
10832;BME280;5469;48.574;8.768;2022-12-29T08:06:42;94385.19;;;11.28;nan
10832;BME280;5469;48.574;8.768;2022-12-29T08:09:18;94365.50;;;11.34;nan
10832;BME280;5469;48.574;8.768;2022-12-29T08:11:55;94379.28;;;11.36;nan
10832;BME280;5469;48.574;8.768;2022-12-29T08:14:30;94388.28;;;11.35;nan
10832;BME280;5469;48.574;8.768;2022-12-29T08:17:06;94390.28;;;11.44;nan
10832;BME280;5469;48.574;8.768;2022-12-29T08:19:41;94376.94;;;11.49;nan
10832;BME280;5469;48.574;8.768;2022-12-29T08:22:17;94373.25;;;11.50;nan
10832;BME280;5469;48.574;8.768;2022-12-29T08:24:53;94404.22;;;11.35;nan
10832;BME280;5469;48.574;8.768;2022-12-29T08:27:28;94387.38;;;11.45;nan
10832;BME280;5469;48.574;8.768;2022-12-29T08:30:04;94373.16;;;11.36;nan
10832;BME280;5469;48.574;8.768;2022-12-29T08:32:41;94375.81;;;11.17;nan
10832;BME280;5469;48.574;8.768;2022-12-29T08:35:17;94365.34;;;11.45;nan
10832;BME280;5469;48.574;8.768;2022-12-29T08:37:52;94372.94;;;11.51;nan
10832;BME280;5469;48.574;8.768;2022-12-29T08:40:26;94374.38;;;11.44;nan
10832;BME280;5469;48.574;8.768;2022-12-29T08:43:01;94357.75;;;11.38;nan
10832;BME280;5469;48.574;8.768;2022-12-29T08:45:37;94361.19;;;11.38;nan
10832;BME280;5469;48.574;8.768;2022-12-29T08:48:13;94373.16;;;11.55;nan
10832;BME280;5469;48.574;8.768;2022-12-29T08:50:51;94368.91;;;11.54;nan
10832;BME280;5469;48.574;8.768;2022-12-29T08:53:26;94381.69;;;11.52;nan
10832;BME280;5469;48.574;8.768;2022-12-29T08:56:02;94385.00;;;11.44;nan
10832;BME280;5469;48.574;8.768;2022-12-29T08:58:38;94375.81;;;11.17;nan
10832;BME280;5469;48.574;8.768;2022-12-29T09:01:14;94380.84;;;11.37;nan
10832;BME280;5469;48.574;8.768;2022-12-29T09:03:52;94371.88;;;11.33;nan
10832;BME280;5469;48.574;8.768;2022-12-29T09:06:27;94387.41;;;11.59;nan
10832;BME280;5469;48.574;8.768;2022-12-29T09:09:02;94382.91;;;11.59;nan
10832;BME280;5469;48.574;8.768;2022-12-29T09:11:38;94391.75;;;11.55;nan
10832;BME280;5469;48.574;8.768;2022-12-29T09:14:14;94386.84;;;11.62;nan
10832;BME280;5469;48.574;8.768;2022-12-29T09:16:52;94378.41;;;11.60;nan
10832;BME280;5469;48.574;8.768;2022-12-29T09:19:47;94398.09;;;11.73;nan
10832;BME280;5469;48.574;8.768;2022-12-29T09:22:22;94405.06;;;11.69;nan
10832;BME280;5469;48.574;8.768;2022-12-29T09:24:57;94403.59;;;12.28;nan
10832;BME280;5469;48.574;8.768;2022-12-29T09:27:31;94406.66;;;11.89;nan
10832;BME280;5469;48.574;8.768;2022-12-29T09:30:10;94410.13;;;12.03;nan
10832;BME280;5469;48.574;8.768;2022-12-29T09:32:45;94414.66;;;11.84;nan
10832;BME280;5469;48.574;8.768;2022-12-29T09:35:22;94412.38;;;12.56;nan
10832;BME280;5469;48.574;8.768;2022-12-29T09:37:57;94402.63;;;12.38;nan
10832;BME280;5469;48.574;8.768;2022-12-29T09:40:33;94411.16;;;12.21;nan
10832;BME280;5469;48.574;8.768;2022-12-29T09:46:11;94410.91;;;11.85;nan
10832;BME280;5469;48.574;8.768;2022-12-29T09:48:58;94404.03;;;11.84;nan
10832;BME280;5469;48.574;8.768;2022-12-29T09:51:40;94407.75;;;11.82;nan
10832;BME280;5469;48.574;8.768;2022-12-29T09:54:23;94405.75;;;11.74;nan
10832;BME280;5469;48.574;8.768;2022-12-29T09:57:00;94408.34;;;11.79;nan
10832;BME280;5469;48.574;8.768;2022-12-29T09:59:41;94429.59;;;11.79;nan
10832;BME280;5469;48.574;8.768;2022-12-29T10:02:27;94402.91;;;11.90;nan
10832;BME280;5469;48.574;8.768;2022-12-29T10:05:08;94418.97;;;11.79;nan
10832;BME280;5469;48.574;8.768;2022-12-29T10:07:55;94402.03;;;11.75;nan
10832;BME280;5469;48.574;8.768;2022-12-29T10:10:40;94417.69;;;11.96;nan
10832;BME280;5469;48.574;8.768;2022-12-29T10:13:35;94399.19;;;11.91;nan
10832;BME280;5469;48.574;8.768;2022-12-29T10:16:17;94414.91;;;12.01;nan
10832;BME280;5469;48.574;8.768;2022-12-29T10:19:13;94406.78;;;11.78;nan
10832;BME280;5469;48.574;8.768;2022-12-29T10:22:04;94413.22;;;11.72;nan
10832;BME280;5469;48.574;8.768;2022-12-29T10:24:47;94390.41;;;11.71;nan
10832;BME280;5469;48.574;8.768;2022-12-29T10:27:23;94407.34;;;11.75;nan
10832;BME280;5469;48.574;8.768;2022-12-29T10:29:59;94412.66;;;11.75;nan
10832;BME280;5469;48.574;8.768;2022-12-29T10:32:41;94404.03;;;11.84;nan
10832;BME280;5469;48.574;8.768;2022-12-29T10:35:24;94401.34;;;11.89;nan
10832;BME280;5469;48.574;8.768;2022-12-29T10:38:02;94405.50;;;12.09;nan
10832;BME280;5469;48.574;8.768;2022-12-29T10:40:45;94403.22;;;12.35;nan
10832;BME280;5469;48.574;8.768;2022-12-29T10:43:27;94407.63;;;12.26;nan
10832;BME280;5469;48.574;8.768;2022-12-29T10:46:07;94409.66;;;12.15;nan
10832;BME280;5469;48.574;8.768;2022-12-29T10:48:44;94406.88;;;12.06;nan
10832;BME280;5469;48.574;8.768;2022-12-29T10:51:29;94413.34;;;12.00;nan
10832;BME280;5469;48.574;8.768;2022-12-29T10:54:09;94412.78;;;12.03;nan
10832;BME280;5469;48.574;8.768;2022-12-29T10:56:50;94409.84;;;11.86;nan
10832;BME280;5469;48.574;8.768;2022-12-29T10:59:31;94401.38;;;11.84;nan
10832;BME280;5469;48.574;8.768;2022-12-29T11:02:22;94421.44;;;12.09;nan
10832;BME280;5469;48.574;8.768;2022-12-29T11:05:05;94419.53;;;11.76;nan
10832;BME280;5469;48.574;8.768;2022-12-29T11:07:42;94427.00;;;11.74;nan
10832;BME280;5469;48.574;8.768;2022-12-29T11:10:18;94444.38;;;11.48;nan
10832;BME280;5469;48.574;8.768;2022-12-29T11:12:59;94428.03;;;11.41;nan
10832;BME280;5469;48.574;8.768;2022-12-29T11:15:41;94430.53;;;11.51;nan
10832;BME280;5469;48.574;8.768;2022-12-29T11:18:22;94429.94;;;11.54;nan
10832;BME280;5469;48.574;8.768;2022-12-29T11:20:59;94411.97;;;13.04;nan
10832;BME280;5469;48.574;8.768;2022-12-29T11:23:37;94416.16;;;13.83;nan
10832;BME280;5469;48.574;8.768;2022-12-29T11:26:19;94431.09;;;13.34;nan
10832;BME280;5469;48.574;8.768;2022-12-29T11:29:20;94435.53;;;12.70;nan
10832;BME280;5469;48.574;8.768;2022-12-29T11:31:57;94428.03;;;12.44;nan
10832;BME280;5469;48.574;8.768;2022-12-29T11:34:35;94443.94;;;11.78;nan
10832;BME280;5469;48.574;8.768;2022-12-29T11:37:14;94441.59;;;11.58;nan
10832;BME280;5469;48.574;8.768;2022-12-29T11:39:55;94438.06;;;11.81;nan
10832;BME280;5469;48.574;8.768;2022-12-29T11:42:36;94444.25;;;11.58;nan
10832;BME280;5469;48.574;8.768;2022-12-29T11:45:18;94422.94;;;11.63;nan
10832;BME280;5469;48.574;8.768;2022-12-29T11:47:55;94434.53;;;11.29;nan
10832;BME280;5469;48.574;8.768;2022-12-29T11:50:33;94436.34;;;11.53;nan
10832;BME280;5469;48.574;8.768;2022-12-29T11:53:20;94433.47;;;11.30;nan
10832;BME280;5469;48.574;8.768;2022-12-29T11:55:58;94429.88;;;11.21;nan
10832;BME280;5469;48.574;8.768;2022-12-29T11:58:36;94424.25;;;11.47;nan
10832;BME280;5469;48.574;8.768;2022-12-29T12:01:16;94434.03;;;11.27;nan
10832;BME280;5469;48.574;8.768;2022-12-29T12:03:59;94426.44;;;11.40;nan
10832;BME280;5469;48.574;8.768;2022-12-29T12:06:41;94435.47;;;11.38;nan
10832;BME280;5469;48.574;8.768;2022-12-29T12:09:25;94442.56;;;11.05;nan
10832;BME280;5469;48.574;8.768;2022-12-29T12:12:04;94426.72;;;11.19;nan
10832;BME280;5469;48.574;8.768;2022-12-29T12:14:46;94434.88;;;11.04;nan
10832;BME280;5469;48.574;8.768;2022-12-29T12:17:31;94424.78;;;11.06;nan
10832;BME280;5469;48.574;8.768;2022-12-29T12:20:18;94432.16;;;11.09;nan
10832;BME280;5469;48.574;8.768;2022-12-29T12:23:02;94441.03;;;10.75;nan
10832;BME280;5469;48.574;8.768;2022-12-29T12:25:49;94427.44;;;10.58;nan
10832;BME280;5469;48.574;8.768;2022-12-29T12:28:34;94421.78;;;10.88;nan
10832;BME280;5469;48.574;8.768;2022-12-29T12:31:18;94424.94;;;10.71;nan
10832;BME280;5469;48.574;8.768;2022-12-29T12:33:59;94425.66;;;10.77;nan
10832;BME280;5469;48.574;8.768;2022-12-29T12:36:53;94432.97;;;10.85;nan
10832;BME280;5469;48.574;8.768;2022-12-29T12:39:39;94405.72;;;11.23;nan
10832;BME280;5469;48.574;8.768;2022-12-29T12:42:27;94405.69;;;11.04;nan
10832;BME280;5469;48.574;8.768;2022-12-29T12:45:33;94394.94;;;12.36;nan
10832;BME280;5469;48.574;8.768;2022-12-29T12:48:23;94409.84;;;14.02;nan
10832;BME280;5469;48.574;8.768;2022-12-29T12:51:05;94395.53;;;14.51;nan
10832;BME280;5469;48.574;8.768;2022-12-29T12:54:01;94395.19;;;14.75;nan
10832;BME280;5469;48.574;8.768;2022-12-29T12:57:00;94416.50;;;13.90;nan
10832;BME280;5469;48.574;8.768;2022-12-29T12:59:46;94406.59;;;13.60;nan
10832;BME280;5469;48.574;8.768;2022-12-29T13:02:34;94396.28;;;13.89;nan
10832;BME280;5469;48.574;8.768;2022-12-29T13:05:20;94395.25;;;13.99;nan
10832;BME280;5469;48.574;8.768;2022-12-29T13:08:21;94387.25;;;14.22;nan
10832;BME280;5469;48.574;8.768;2022-12-29T13:11:02;94394.97;;;13.78;nan
10832;BME280;5469;48.574;8.768;2022-12-29T13:14:09;94385.13;;;13.42;nan
10832;BME280;5469;48.574;8.768;2022-12-29T13:16:51;94395.53;;;13.02;nan
10832;BME280;5469;48.574;8.768;2022-12-29T13:19:30;94393.88;;;12.51;nan
10832;BME280;5469;48.574;8.768;2022-12-29T13:22:10;94397.72;;;12.59;nan
10832;BME280;5469;48.574;8.768;2022-12-29T13:24:56;94378.81;;;12.46;nan
10832;BME280;5469;48.574;8.768;2022-12-29T13:27:41;94390.22;;;12.47;nan
10832;BME280;5469;48.574;8.768;2022-12-29T13:30:18;94382.53;;;12.32;nan
10832;BME280;5469;48.574;8.768;2022-12-29T13:32:59;94385.78;;;12.29;nan
10832;BME280;5469;48.574;8.768;2022-12-29T13:35:46;94386.50;;;12.48;nan
10832;BME280;5469;48.574;8.768;2022-12-29T13:38:25;94381.56;;;12.28;nan
10832;BME280;5469;48.574;8.768;2022-12-29T13:41:03;94365.94;;;11.93;nan
10832;BME280;5469;48.574;8.768;2022-12-29T13:43:39;94373.34;;;12.24;nan
10832;BME280;5469;48.574;8.768;2022-12-29T13:46:18;94375.69;;;11.79;nan
10832;BME280;5469;48.574;8.768;2022-12-29T13:48:57;94375.59;;;12.03;nan
10832;BME280;5469;48.574;8.768;2022-12-29T13:51:33;94379.13;;;11.98;nan
10832;BME280;5469;48.574;8.768;2022-12-29T13:54:17;94370.97;;;11.76;nan
10832;BME280;5469;48.574;8.768;2022-12-29T13:57:05;94381.28;;;11.96;nan
10832;BME280;5469;48.574;8.768;2022-12-29T13:59:46;94375.19;;;11.96;nan
10832;BME280;5469;48.574;8.768;2022-12-29T14:02:30;94380.72;;;12.13;nan
10832;BME280;5469;48.574;8.768;2022-12-29T14:05:28;94376.88;;;12.06;nan
10832;BME280;5469;48.574;8.768;2022-12-29T14:08:04;94384.22;;;11.95;nan
10832;BME280;5469;48.574;8.768;2022-12-29T14:10:45;94384.81;;;11.92;nan
10832;BME280;5469;48.574;8.768;2022-12-29T14:13:22;94378.41;;;11.93;nan
10832;BME280;5469;48.574;8.768;2022-12-29T14:15:58;94379.63;;;11.81;nan
10832;BME280;5469;48.574;8.768;2022-12-29T14:18:33;94389.13;;;11.88;nan
10832;BME280;5469;48.574;8.768;2022-12-29T14:21:10;94370.34;;;11.65;nan
10832;BME280;5469;48.574;8.768;2022-12-29T14:23:50;94373.00;;;11.65;nan
10832;BME280;5469;48.574;8.768;2022-12-29T14:26:35;94370.06;;;11.48;nan
10832;BME280;5469;48.574;8.768;2022-12-29T14:29:43;94374.25;;;11.16;nan
10832;BME280;5469;48.574;8.768;2022-12-29T14:32:35;94367.00;;;11.22;nan
10832;BME280;5469;48.574;8.768;2022-12-29T14:35:36;94385.78;;;11.06;nan
10832;BME280;5469;48.574;8.768;2022-12-29T14:38:16;94377.63;;;11.22;nan
10832;BME280;5469;48.574;8.768;2022-12-29T14:40:51;94378.97;;;11.19;nan
10832;BME280;5469;48.574;8.768;2022-12-29T14:43:26;94373.22;;;11.31;nan
10832;BME280;5469;48.574;8.768;2022-12-29T14:46:02;94373.69;;;11.19;nan
10832;BME280;5469;48.574;8.768;2022-12-29T14:48:38;94379.75;;;11.01;nan